sensor_id;sensor_type;location;lat;lon;timestamp;temperature;humidity
32506;DHT22;18955;51.224;8.482;2023-06-22T00:00:49;20.00;75.70
32506;DHT22;18955;51.224;8.482;2023-06-22T00:03:19;20.00;75.80
32506;DHT22;18955;51.224;8.482;2023-06-22T00:05:46;20.00;75.90
32506;DHT22;18955;51.224;8.482;2023-06-22T00:08:13;20.00;75.70
32506;DHT22;18955;51.224;8.482;2023-06-22T00:10:39;19.90;75.70
32506;DHT22;18955;51.224;8.482;2023-06-22T00:13:07;19.90;75.70
32506;DHT22;18955;51.224;8.482;2023-06-22T00:15:34;19.90;75.90
32506;DHT22;18955;51.224;8.482;2023-06-22T00:18:00;19.90;75.80
32506;DHT22;18955;51.224;8.482;2023-06-22T00:20:27;19.80;75.90
32506;DHT22;18955;51.224;8.482;2023-06-22T00:22:56;19.80;75.90
32506;DHT22;18955;51.224;8.482;2023-06-22T00:25:23;19.80;75.90
32506;DHT22;18955;51.224;8.482;2023-06-22T00:27:50;19.80;75.80
32506;DHT22;18955;51.224;8.482;2023-06-22T00:30:17;19.70;75.80
32506;DHT22;18955;51.224;8.482;2023-06-22T00:32:44;19.70;75.90
32506;DHT22;18955;51.224;8.482;2023-06-22T00:35:12;19.70;75.90
32506;DHT22;18955;51.224;8.482;2023-06-22T00:37:39;19.70;75.90
32506;DHT22;18955;51.224;8.482;2023-06-22T00:40:09;19.60;76.00
32506;DHT22;18955;51.224;8.482;2023-06-22T00:42:40;19.70;76.00
32506;DHT22;18955;51.224;8.482;2023-06-22T00:45:08;19.60;75.80
32506;DHT22;18955;51.224;8.482;2023-06-22T00:47:34;19.60;75.90
32506;DHT22;18955;51.224;8.482;2023-06-22T00:50:06;19.60;76.00
32506;DHT22;18955;51.224;8.482;2023-06-22T00:52:33;19.60;76.00
32506;DHT22;18955;51.224;8.482;2023-06-22T00:55:03;19.50;76.10
32506;DHT22;18955;51.224;8.482;2023-06-22T00:57:30;19.50;76.10
32506;DHT22;18955;51.224;8.482;2023-06-22T00:59:56;19.50;76.10
32506;DHT22;18955;51.224;8.482;2023-06-22T01:02:23;19.50;76.10
32506;DHT22;18955;51.224;8.482;2023-06-22T01:04:49;19.50;76.00
32506;DHT22;18955;51.224;8.482;2023-06-22T01:07:30;19.40;76.10
32506;DHT22;18955;51.224;8.482;2023-06-22T01:12:35;19.40;76.00
32506;DHT22;18955;51.224;8.482;2023-06-22T01:17:50;19.40;76.00
32506;DHT22;18955;51.224;8.482;2023-06-22T01:20:19;19.40;76.20
32506;DHT22;18955;51.224;8.482;2023-06-22T01:23:09;19.30;76.10
32506;DHT22;18955;51.224;8.482;2023-06-22T01:30:57;19.30;76.10
32506;DHT22;18955;51.224;8.482;2023-06-22T01:33:34;19.20;76.20
32506;DHT22;18955;51.224;8.482;2023-06-22T01:36:02;19.30;76.10
32506;DHT22;18955;51.224;8.482;2023-06-22T01:38:29;19.20;76.00
32506;DHT22;18955;51.224;8.482;2023-06-22T01:40:57;19.20;76.20
32506;DHT22;18955;51.224;8.482;2023-06-22T01:43:26;19.20;76.00
32506;DHT22;18955;51.224;8.482;2023-06-22T01:45:54;19.20;76.20
32506;DHT22;18955;51.224;8.482;2023-06-22T01:48:21;19.10;76.10
32506;DHT22;18955;51.224;8.482;2023-06-22T01:50:48;19.10;76.20
32506;DHT22;18955;51.224;8.482;2023-06-22T01:53:14;19.10;76.00
32506;DHT22;18955;51.224;8.482;2023-06-22T01:55:41;19.10;76.20
32506;DHT22;18955;51.224;8.482;2023-06-22T01:58:07;19.10;76.30
32506;DHT22;18955;51.224;8.482;2023-06-22T02:00:37;19.00;76.20
32506;DHT22;18955;51.224;8.482;2023-06-22T02:03:14;19.00;76.10
32506;DHT22;18955;51.224;8.482;2023-06-22T02:05:49;19.00;76.20
32506;DHT22;18955;51.224;8.482;2023-06-22T02:08:24;19.00;76.30
32506;DHT22;18955;51.224;8.482;2023-06-22T02:10:52;19.00;76.20
32506;DHT22;18955;51.224;8.482;2023-06-22T02:13:20;19.00;76.20
32506;DHT22;18955;51.224;8.482;2023-06-22T02:15:47;19.00;76.20
32506;DHT22;18955;51.224;8.482;2023-06-22T02:18:14;19.00;76.30
32506;DHT22;18955;51.224;8.482;2023-06-22T02:20:40;19.00;76.40
32506;DHT22;18955;51.224;8.482;2023-06-22T02:23:07;18.90;76.40
32506;DHT22;18955;51.224;8.482;2023-06-22T02:25:35;18.90;76.50
32506;DHT22;18955;51.224;8.482;2023-06-22T02:28:02;18.90;76.20
32506;DHT22;18955;51.224;8.482;2023-06-22T02:30:29;18.90;76.40
32506;DHT22;18955;51.224;8.482;2023-06-22T02:32:55;18.80;76.40
32506;DHT22;18955;51.224;8.482;2023-06-22T02:35:29;18.80;76.30
32506;DHT22;18955;51.224;8.482;2023-06-22T02:37:59;18.80;76.40
32506;DHT22;18955;51.224;8.482;2023-06-22T02:40:26;18.80;76.40
32506;DHT22;18955;51.224;8.482;2023-06-22T02:42:52;18.80;76.40
32506;DHT22;18955;51.224;8.482;2023-06-22T02:45:18;18.80;76.40
32506;DHT22;18955;51.224;8.482;2023-06-22T02:47:45;18.80;76.40
32506;DHT22;18955;51.224;8.482;2023-06-22T02:50:14;18.80;76.50
32506;DHT22;18955;51.224;8.482;2023-06-22T02:52:40;18.70;76.50
32506;DHT22;18955;51.224;8.482;2023-06-22T02:55:06;18.70;76.30
32506;DHT22;18955;51.224;8.482;2023-06-22T02:57:36;18.70;76.40
32506;DHT22;18955;51.224;8.482;2023-06-22T03:00:05;18.70;76.50
32506;DHT22;18955;51.224;8.482;2023-06-22T03:02:48;18.70;76.50
32506;DHT22;18955;51.224;8.482;2023-06-22T03:05:15;18.70;76.60
32506;DHT22;18955;51.224;8.482;2023-06-22T03:07:44;18.70;76.50
32506;DHT22;18955;51.224;8.482;2023-06-22T03:10:12;18.60;76.60
32506;DHT22;18955;51.224;8.482;2023-06-22T03:12:39;18.60;76.50
32506;DHT22;18955;51.224;8.482;2023-06-22T03:15:11;18.60;76.70
32506;DHT22;18955;51.224;8.482;2023-06-22T03:17:38;18.60;76.60
32506;DHT22;18955;51.224;8.482;2023-06-22T03:20:05;18.60;76.30
32506;DHT22;18955;51.224;8.482;2023-06-22T03:22:41;18.60;76.40
32506;DHT22;18955;51.224;8.482;2023-06-22T03:25:08;18.50;76.40
32506;DHT22;18955;51.224;8.482;2023-06-22T03:27:44;18.60;76.50
32506;DHT22;18955;51.224;8.482;2023-06-22T03:30:11;18.50;76.40
32506;DHT22;18955;51.224;8.482;2023-06-22T03:32:38;18.50;76.60
32506;DHT22;18955;51.224;8.482;2023-06-22T03:35:06;18.50;76.30
32506;DHT22;18955;51.224;8.482;2023-06-22T03:37:34;18.50;76.40
32506;DHT22;18955;51.224;8.482;2023-06-22T03:40:01;18.50;76.60
32506;DHT22;18955;51.224;8.482;2023-06-22T03:42:29;18.50;76.50
32506;DHT22;18955;51.224;8.482;2023-06-22T03:44:55;18.50;76.30
32506;DHT22;18955;51.224;8.482;2023-06-22T03:47:22;18.50;76.70
32506;DHT22;18955;51.224;8.482;2023-06-22T03:49:48;18.50;76.50
32506;DHT22;18955;51.224;8.482;2023-06-22T03:52:14;18.50;76.50
32506;DHT22;18955;51.224;8.482;2023-06-22T03:54:40;18.40;76.30
32506;DHT22;18955;51.224;8.482;2023-06-22T03:57:07;18.40;76.40
32506;DHT22;18955;51.224;8.482;2023-06-22T03:59:33;18.40;76.50
32506;DHT22;18955;51.224;8.482;2023-06-22T04:01:59;18.40;76.40
32506;DHT22;18955;51.224;8.482;2023-06-22T04:04:26;18.40;76.60
32506;DHT22;18955;51.224;8.482;2023-06-22T04:06:52;18.40;76.40
32506;DHT22;18955;51.224;8.482;2023-06-22T04:09:18;18.40;76.30
32506;DHT22;18955;51.224;8.482;2023-06-22T04:11:44;18.40;76.60
32506;DHT22;18955;51.224;8.482;2023-06-22T04:14:10;18.40;76.50
32506;DHT22;18955;51.224;8.482;2023-06-22T04:16:36;18.30;76.60
32506;DHT22;18955;51.224;8.482;2023-06-22T04:19:03;18.30;76.60
32506;DHT22;18955;51.224;8.482;2023-06-22T04:21:29;18.30;76.50
32506;DHT22;18955;51.224;8.482;2023-06-22T04:23:55;18.30;76.40
32506;DHT22;18955;51.224;8.482;2023-06-22T04:26:21;18.30;76.50
32506;DHT22;18955;51.224;8.482;2023-06-22T04:28:48;18.30;76.40
32506;DHT22;18955;51.224;8.482;2023-06-22T04:31:19;18.30;76.70
32506;DHT22;18955;51.224;8.482;2023-06-22T04:33:45;18.30;76.70
32506;DHT22;18955;51.224;8.482;2023-06-22T04:36:11;18.30;76.60
32506;DHT22;18955;51.224;8.482;2023-06-22T04:38:40;18.30;76.80
32506;DHT22;18955;51.224;8.482;2023-06-22T04:41:08;18.30;76.70
32506;DHT22;18955;51.224;8.482;2023-06-22T04:43:49;18.20;76.70
32506;DHT22;18955;51.224;8.482;2023-06-22T04:46:19;18.20;76.50
32506;DHT22;18955;51.224;8.482;2023-06-22T04:48:46;18.20;76.80
32506;DHT22;18955;51.224;8.482;2023-06-22T04:51:12;18.20;76.70
32506;DHT22;18955;51.224;8.482;2023-06-22T04:53:38;18.20;76.80
32506;DHT22;18955;51.224;8.482;2023-06-22T04:56:08;18.20;76.70
32506;DHT22;18955;51.224;8.482;2023-06-22T04:58:34;18.10;77.00
32506;DHT22;18955;51.224;8.482;2023-06-22T05:01:00;18.20;76.80
32506;DHT22;18955;51.224;8.482;2023-06-22T05:03:26;18.20;76.90
32506;DHT22;18955;51.224;8.482;2023-06-22T05:05:53;18.20;76.60
32506;DHT22;18955;51.224;8.482;2023-06-22T05:08:19;18.10;76.60
32506;DHT22;18955;51.224;8.482;2023-06-22T05:10:45;18.20;76.90
32506;DHT22;18955;51.224;8.482;2023-06-22T05:13:11;18.20;77.00
32506;DHT22;18955;51.224;8.482;2023-06-22T05:15:38;18.20;76.60
32506;DHT22;18955;51.224;8.482;2023-06-22T05:18:06;18.10;76.60
32506;DHT22;18955;51.224;8.482;2023-06-22T05:20:32;18.10;76.60
32506;DHT22;18955;51.224;8.482;2023-06-22T05:23:01;18.10;76.50
32506;DHT22;18955;51.224;8.482;2023-06-22T05:25:28;18.10;76.70
32506;DHT22;18955;51.224;8.482;2023-06-22T05:27:56;18.10;76.50
32506;DHT22;18955;51.224;8.482;2023-06-22T05:30:22;18.10;76.50
32506;DHT22;18955;51.224;8.482;2023-06-22T05:32:48;18.10;76.40
32506;DHT22;18955;51.224;8.482;2023-06-22T05:35:14;18.10;76.50
32506;DHT22;18955;51.224;8.482;2023-06-22T05:37:40;18.10;76.70
32506;DHT22;18955;51.224;8.482;2023-06-22T05:40:07;18.00;76.90
32506;DHT22;18955;51.224;8.482;2023-06-22T05:42:33;18.10;76.40
32506;DHT22;18955;51.224;8.482;2023-06-22T05:45:00;18.10;76.40
32506;DHT22;18955;51.224;8.482;2023-06-22T05:47:26;18.10;76.50
32506;DHT22;18955;51.224;8.482;2023-06-22T05:49:52;18.10;76.60
32506;DHT22;18955;51.224;8.482;2023-06-22T05:52:18;18.10;76.50
32506;DHT22;18955;51.224;8.482;2023-06-22T05:54:44;18.00;76.60
32506;DHT22;18955;51.224;8.482;2023-06-22T05:57:11;18.00;76.60
32506;DHT22;18955;51.224;8.482;2023-06-22T05:59:37;18.10;76.50
32506;DHT22;18955;51.224;8.482;2023-06-22T06:02:03;18.10;76.50
32506;DHT22;18955;51.224;8.482;2023-06-22T06:04:30;18.00;76.50
32506;DHT22;18955;51.224;8.482;2023-06-22T06:06:57;18.00;76.10
32506;DHT22;18955;51.224;8.482;2023-06-22T06:09:23;18.00;76.00
32506;DHT22;18955;51.224;8.482;2023-06-22T06:11:49;18.00;76.10
32506;DHT22;18955;51.224;8.482;2023-06-22T06:14:15;18.00;76.10
32506;DHT22;18955;51.224;8.482;2023-06-22T06:16:43;18.00;76.10
32506;DHT22;18955;51.224;8.482;2023-06-22T06:19:09;18.00;76.10
32506;DHT22;18955;51.224;8.482;2023-06-22T06:21:35;18.10;76.00
32506;DHT22;18955;51.224;8.482;2023-06-22T06:24:02;18.10;75.80
32506;DHT22;18955;51.224;8.482;2023-06-22T06:26:28;18.10;76.10
32506;DHT22;18955;51.224;8.482;2023-06-22T06:28:56;18.10;76.10
32506;DHT22;18955;51.224;8.482;2023-06-22T06:31:23;18.10;75.90
32506;DHT22;18955;51.224;8.482;2023-06-22T06:33:49;18.10;76.00
32506;DHT22;18955;51.224;8.482;2023-06-22T06:36:16;18.10;75.90
32506;DHT22;18955;51.224;8.482;2023-06-22T06:38:42;18.20;75.80
32506;DHT22;18955;51.224;8.482;2023-06-22T06:41:08;18.20;75.60
32506;DHT22;18955;51.224;8.482;2023-06-22T06:43:34;18.30;75.50
32506;DHT22;18955;51.224;8.482;2023-06-22T06:46:01;18.30;75.30
32506;DHT22;18955;51.224;8.482;2023-06-22T06:48:29;18.30;75.20
32506;DHT22;18955;51.224;8.482;2023-06-22T06:50:55;18.40;75.10
32506;DHT22;18955;51.224;8.482;2023-06-22T06:53:21;18.50;75.00
32506;DHT22;18955;51.224;8.482;2023-06-22T06:55:47;18.50;75.00
32506;DHT22;18955;51.224;8.482;2023-06-22T06:58:14;18.50;74.90
32506;DHT22;18955;51.224;8.482;2023-06-22T07:00:40;18.50;74.90
32506;DHT22;18955;51.224;8.482;2023-06-22T07:03:07;18.50;74.90
32506;DHT22;18955;51.224;8.482;2023-06-22T07:05:33;18.50;74.80
32506;DHT22;18955;51.224;8.482;2023-06-22T07:07:59;18.60;74.80
32506;DHT22;18955;51.224;8.482;2023-06-22T07:10:25;18.60;74.70
32506;DHT22;18955;51.224;8.482;2023-06-22T07:12:52;18.60;74.60
32506;DHT22;18955;51.224;8.482;2023-06-22T07:15:18;18.70;74.60
32506;DHT22;18955;51.224;8.482;2023-06-22T07:17:44;18.70;74.50
32506;DHT22;18955;51.224;8.482;2023-06-22T07:20:11;18.80;74.60
32506;DHT22;18955;51.224;8.482;2023-06-22T07:22:44;18.80;74.40
32506;DHT22;18955;51.224;8.482;2023-06-22T07:25:13;18.80;74.40
32506;DHT22;18955;51.224;8.482;2023-06-22T07:28:04;18.90;74.40
32506;DHT22;18955;51.224;8.482;2023-06-22T07:30:31;18.90;74.50
32506;DHT22;18955;51.224;8.482;2023-06-22T07:32:58;19.00;74.90
32506;DHT22;18955;51.224;8.482;2023-06-22T07:35:30;19.00;74.30
32506;DHT22;18955;51.224;8.482;2023-06-22T07:37:56;19.00;74.30
32506;DHT22;18955;51.224;8.482;2023-06-22T07:40:22;19.00;74.40
32506;DHT22;18955;51.224;8.482;2023-06-22T07:42:49;19.00;74.30
32506;DHT22;18955;51.224;8.482;2023-06-22T07:45:17;19.10;74.40
32506;DHT22;18955;51.224;8.482;2023-06-22T07:47:43;19.10;74.30
32506;DHT22;18955;51.224;8.482;2023-06-22T07:50:10;19.20;74.40
32506;DHT22;18955;51.224;8.482;2023-06-22T07:52:36;19.20;74.40
32506;DHT22;18955;51.224;8.482;2023-06-22T07:55:03;19.20;74.40
32506;DHT22;18955;51.224;8.482;2023-06-22T07:57:30;19.20;74.40
32506;DHT22;18955;51.224;8.482;2023-06-22T08:00:00;19.30;74.50
32506;DHT22;18955;51.224;8.482;2023-06-22T08:02:26;19.30;74.60
32506;DHT22;18955;51.224;8.482;2023-06-22T08:04:53;19.30;74.50
32506;DHT22;18955;51.224;8.482;2023-06-22T08:07:19;19.30;74.60
32506;DHT22;18955;51.224;8.482;2023-06-22T08:09:48;19.30;75.00
32506;DHT22;18955;51.224;8.482;2023-06-22T08:12:15;19.40;74.70
32506;DHT22;18955;51.224;8.482;2023-06-22T08:14:42;19.40;74.80
32506;DHT22;18955;51.224;8.482;2023-06-22T08:17:08;19.40;74.80
32506;DHT22;18955;51.224;8.482;2023-06-22T08:19:34;19.40;74.70
32506;DHT22;18955;51.224;8.482;2023-06-22T08:22:01;19.40;74.80
32506;DHT22;18955;51.224;8.482;2023-06-22T08:24:27;19.40;74.90
32506;DHT22;18955;51.224;8.482;2023-06-22T08:26:56;19.50;74.90
32506;DHT22;18955;51.224;8.482;2023-06-22T08:29:22;19.50;75.00
32506;DHT22;18955;51.224;8.482;2023-06-22T08:31:48;19.50;75.30
32506;DHT22;18955;51.224;8.482;2023-06-22T08:34:14;19.50;75.70
32506;DHT22;18955;51.224;8.482;2023-06-22T08:36:41;19.50;75.70
32506;DHT22;18955;51.224;8.482;2023-06-22T08:39:09;19.50;75.70
32506;DHT22;18955;51.224;8.482;2023-06-22T08:41:35;19.60;75.60
32506;DHT22;18955;51.224;8.482;2023-06-22T08:44:01;19.60;75.70
32506;DHT22;18955;51.224;8.482;2023-06-22T08:46:28;19.60;75.70
32506;DHT22;18955;51.224;8.482;2023-06-22T08:48:59;19.60;75.70
32506;DHT22;18955;51.224;8.482;2023-06-22T08:51:26;19.60;75.70
32506;DHT22;18955;51.224;8.482;2023-06-22T08:53:52;19.60;75.80
32506;DHT22;18955;51.224;8.482;2023-06-22T08:56:18;19.60;75.80
32506;DHT22;18955;51.224;8.482;2023-06-22T08:58:45;19.70;75.80
32506;DHT22;18955;51.224;8.482;2023-06-22T09:01:11;19.70;75.90
32506;DHT22;18955;51.224;8.482;2023-06-22T09:03:37;19.70;75.90
32506;DHT22;18955;51.224;8.482;2023-06-22T09:06:03;19.70;75.90
32506;DHT22;18955;51.224;8.482;2023-06-22T09:08:30;19.70;76.00
32506;DHT22;18955;51.224;8.482;2023-06-22T09:10:56;19.80;75.90
32506;DHT22;18955;51.224;8.482;2023-06-22T09:13:22;19.80;75.90
32506;DHT22;18955;51.224;8.482;2023-06-22T09:15:48;19.80;76.00
32506;DHT22;18955;51.224;8.482;2023-06-22T09:18:15;19.80;75.90
32506;DHT22;18955;51.224;8.482;2023-06-22T09:20:41;19.80;76.00
32506;DHT22;18955;51.224;8.482;2023-06-22T09:23:07;19.90;76.00
32506;DHT22;18955;51.224;8.482;2023-06-22T09:25:33;19.90;76.00
32506;DHT22;18955;51.224;8.482;2023-06-22T09:28:00;20.00;76.00
32506;DHT22;18955;51.224;8.482;2023-06-22T09:30:26;19.90;75.90
32506;DHT22;18955;51.224;8.482;2023-06-22T09:32:52;20.00;75.90
32506;DHT22;18955;51.224;8.482;2023-06-22T09:35:18;20.00;75.90
32506;DHT22;18955;51.224;8.482;2023-06-22T09:37:46;20.00;76.00
32506;DHT22;18955;51.224;8.482;2023-06-22T09:40:12;20.00;76.10
32506;DHT22;18955;51.224;8.482;2023-06-22T09:42:39;20.10;76.10
32506;DHT22;18955;51.224;8.482;2023-06-22T09:45:05;20.10;76.00
32506;DHT22;18955;51.224;8.482;2023-06-22T09:47:32;20.10;76.10
32506;DHT22;18955;51.224;8.482;2023-06-22T09:49:58;20.20;76.20
32506;DHT22;18955;51.224;8.482;2023-06-22T09:52:25;20.20;76.30
32506;DHT22;18955;51.224;8.482;2023-06-22T09:54:52;20.20;76.60
32506;DHT22;18955;51.224;8.482;2023-06-22T09:57:18;20.20;76.60
32506;DHT22;18955;51.224;8.482;2023-06-22T09:59:44;20.20;76.60
32506;DHT22;18955;51.224;8.482;2023-06-22T10:02:10;20.20;76.60
32506;DHT22;18955;51.224;8.482;2023-06-22T10:04:37;20.20;76.50
32506;DHT22;18955;51.224;8.482;2023-06-22T10:07:03;20.20;76.60
32506;DHT22;18955;51.224;8.482;2023-06-22T10:09:29;20.30;76.50
32506;DHT22;18955;51.224;8.482;2023-06-22T10:11:55;20.30;76.80
32506;DHT22;18955;51.224;8.482;2023-06-22T10:14:22;20.30;77.10
32506;DHT22;18955;51.224;8.482;2023-06-22T10:16:48;20.30;77.00
32506;DHT22;18955;51.224;8.482;2023-06-22T10:19:14;20.30;76.90
32506;DHT22;18955;51.224;8.482;2023-06-22T10:21:40;20.40;77.50
32506;DHT22;18955;51.224;8.482;2023-06-22T10:24:07;20.40;77.00
32506;DHT22;18955;51.224;8.482;2023-06-22T10:26:33;20.40;76.80
32506;DHT22;18955;51.224;8.482;2023-06-22T10:29:00;20.40;77.00
32506;DHT22;18955;51.224;8.482;2023-06-22T10:31:27;20.40;77.20
32506;DHT22;18955;51.224;8.482;2023-06-22T10:33:54;20.50;77.20
32506;DHT22;18955;51.224;8.482;2023-06-22T10:36:21;20.50;77.10
32506;DHT22;18955;51.224;8.482;2023-06-22T10:38:48;20.50;77.10
32506;DHT22;18955;51.224;8.482;2023-06-22T10:41:15;20.50;77.00
32506;DHT22;18955;51.224;8.482;2023-06-22T10:43:41;20.50;77.20
32506;DHT22;18955;51.224;8.482;2023-06-22T10:46:09;20.50;77.10
32506;DHT22;18955;51.224;8.482;2023-06-22T10:48:35;20.60;77.20
32506;DHT22;18955;51.224;8.482;2023-06-22T10:51:01;20.60;77.00
32506;DHT22;18955;51.224;8.482;2023-06-22T10:53:28;20.60;77.00
32506;DHT22;18955;51.224;8.482;2023-06-22T10:55:54;20.70;77.00
32506;DHT22;18955;51.224;8.482;2023-06-22T10:58:20;20.70;77.10
32506;DHT22;18955;51.224;8.482;2023-06-22T11:00:46;20.70;77.30
32506;DHT22;18955;51.224;8.482;2023-06-22T11:03:13;20.70;77.20
32506;DHT22;18955;51.224;8.482;2023-06-22T11:05:40;20.70;77.50
32506;DHT22;18955;51.224;8.482;2023-06-22T11:08:07;20.70;77.40
32506;DHT22;18955;51.224;8.482;2023-06-22T11:10:33;20.70;77.30
32506;DHT22;18955;51.224;8.482;2023-06-22T11:13:00;20.70;77.30
32506;DHT22;18955;51.224;8.482;2023-06-22T11:15:26;20.70;77.80
32506;DHT22;18955;51.224;8.482;2023-06-22T11:17:52;20.80;77.60
32506;DHT22;18955;51.224;8.482;2023-06-22T11:20:18;20.80;77.50
32506;DHT22;18955;51.224;8.482;2023-06-22T11:22:45;20.80;78.40
32506;DHT22;18955;51.224;8.482;2023-06-22T11:25:11;20.80;77.70
32506;DHT22;18955;51.224;8.482;2023-06-22T11:27:38;20.80;77.70
32506;DHT22;18955;51.224;8.482;2023-06-22T11:30:04;20.90;77.70
32506;DHT22;18955;51.224;8.482;2023-06-22T11:32:31;20.80;77.60
32506;DHT22;18955;51.224;8.482;2023-06-22T11:34:57;20.80;77.60
32506;DHT22;18955;51.224;8.482;2023-06-22T11:37:23;20.80;77.70
32506;DHT22;18955;51.224;8.482;2023-06-22T11:39:49;20.80;77.70
32506;DHT22;18955;51.224;8.482;2023-06-22T11:42:16;20.80;77.60
32506;DHT22;18955;51.224;8.482;2023-06-22T11:44:42;20.90;77.60
32506;DHT22;18955;51.224;8.482;2023-06-22T11:47:09;20.90;77.60
32506;DHT22;18955;51.224;8.482;2023-06-22T11:49:36;20.90;77.70
32506;DHT22;18955;51.224;8.482;2023-06-22T11:52:02;20.90;77.70
32506;DHT22;18955;51.224;8.482;2023-06-22T11:54:28;20.90;77.60
32506;DHT22;18955;51.224;8.482;2023-06-22T11:56:54;20.90;77.70
32506;DHT22;18955;51.224;8.482;2023-06-22T11:59:21;20.90;77.80
32506;DHT22;18955;51.224;8.482;2023-06-22T12:01:48;20.90;77.60
32506;DHT22;18955;51.224;8.482;2023-06-22T12:04:16;21.00;77.60
32506;DHT22;18955;51.224;8.482;2023-06-22T12:06:42;21.00;77.50
32506;DHT22;18955;51.224;8.482;2023-06-22T12:09:10;20.90;77.50
32506;DHT22;18955;51.224;8.482;2023-06-22T12:11:36;20.90;77.50
32506;DHT22;18955;51.224;8.482;2023-06-22T12:14:02;20.90;77.50
32506;DHT22;18955;51.224;8.482;2023-06-22T12:16:29;20.90;77.40
32506;DHT22;18955;51.224;8.482;2023-06-22T12:18:55;21.00;77.50
32506;DHT22;18955;51.224;8.482;2023-06-22T12:21:21;21.00;77.40
32506;DHT22;18955;51.224;8.482;2023-06-22T12:23:47;21.00;77.40
32506;DHT22;18955;51.224;8.482;2023-06-22T12:26:14;21.00;77.50
32506;DHT22;18955;51.224;8.482;2023-06-22T12:28:40;21.00;77.40
32506;DHT22;18955;51.224;8.482;2023-06-22T12:31:06;21.00;77.40
32506;DHT22;18955;51.224;8.482;2023-06-22T12:33:32;21.00;77.40
32506;DHT22;18955;51.224;8.482;2023-06-22T12:35:59;21.00;77.30
32506;DHT22;18955;51.224;8.482;2023-06-22T12:38:25;21.00;77.30
32506;DHT22;18955;51.224;8.482;2023-06-22T12:40:52;21.00;77.30
32506;DHT22;18955;51.224;8.482;2023-06-22T12:43:18;21.00;77.30
32506;DHT22;18955;51.224;8.482;2023-06-22T12:45:44;21.00;77.20
32506;DHT22;18955;51.224;8.482;2023-06-22T12:48:10;21.00;77.40
32506;DHT22;18955;51.224;8.482;2023-06-22T12:50:37;21.10;77.40
32506;DHT22;18955;51.224;8.482;2023-06-22T12:53:03;21.10;77.30
32506;DHT22;18955;51.224;8.482;2023-06-22T12:55:30;21.10;77.30
32506;DHT22;18955;51.224;8.482;2023-06-22T12:57:56;21.10;77.40
32506;DHT22;18955;51.224;8.482;2023-06-22T13:00:22;21.10;77.40
32506;DHT22;18955;51.224;8.482;2023-06-22T13:02:49;21.10;77.50
32506;DHT22;18955;51.224;8.482;2023-06-22T13:05:15;21.10;77.60
32506;DHT22;18955;51.224;8.482;2023-06-22T13:07:41;21.10;77.60
32506;DHT22;18955;51.224;8.482;2023-06-22T13:10:08;21.10;77.60
32506;DHT22;18955;51.224;8.482;2023-06-22T13:12:35;21.10;77.80
32506;DHT22;18955;51.224;8.482;2023-06-22T13:15:01;21.10;77.60
32506;DHT22;18955;51.224;8.482;2023-06-22T13:17:29;21.10;77.70
32506;DHT22;18955;51.224;8.482;2023-06-22T13:19:55;21.10;77.60
32506;DHT22;18955;51.224;8.482;2023-06-22T13:22:32;21.10;77.80
32506;DHT22;18955;51.224;8.482;2023-06-22T13:25:00;21.10;77.70
32506;DHT22;18955;51.224;8.482;2023-06-22T13:27:26;21.10;77.70
32506;DHT22;18955;51.224;8.482;2023-06-22T13:29:53;21.10;77.50
32506;DHT22;18955;51.224;8.482;2023-06-22T13:32:19;21.10;77.60
32506;DHT22;18955;51.224;8.482;2023-06-22T13:34:45;21.10;77.60
32506;DHT22;18955;51.224;8.482;2023-06-22T13:37:11;21.10;77.70
32506;DHT22;18955;51.224;8.482;2023-06-22T13:39:37;21.10;77.90
32506;DHT22;18955;51.224;8.482;2023-06-22T13:42:04;21.10;77.80
32506;DHT22;18955;51.224;8.482;2023-06-22T13:44:30;21.10;77.70
32506;DHT22;18955;51.224;8.482;2023-06-22T13:46:57;21.10;77.70
32506;DHT22;18955;51.224;8.482;2023-06-22T13:49:23;21.10;77.70
32506;DHT22;18955;51.224;8.482;2023-06-22T13:51:49;21.10;77.60
32506;DHT22;18955;51.224;8.482;2023-06-22T13:54:16;21.10;77.60
32506;DHT22;18955;51.224;8.482;2023-06-22T13:56:42;21.10;77.60
32506;DHT22;18955;51.224;8.482;2023-06-22T13:59:08;21.10;77.70
32506;DHT22;18955;51.224;8.482;2023-06-22T14:01:37;21.10;77.60
32506;DHT22;18955;51.224;8.482;2023-06-22T14:04:06;21.10;77.60
32506;DHT22;18955;51.224;8.482;2023-06-22T14:06:32;21.10;77.40
32506;DHT22;18955;51.224;8.482;2023-06-22T14:08:58;21.10;77.50
32506;DHT22;18955;51.224;8.482;2023-06-22T14:11:24;21.10;77.50
32506;DHT22;18955;51.224;8.482;2023-06-22T14:13:51;21.10;77.60
32506;DHT22;18955;51.224;8.482;2023-06-22T14:16:18;21.10;77.50
32506;DHT22;18955;51.224;8.482;2023-06-22T14:18:45;21.10;77.50
32506;DHT22;18955;51.224;8.482;2023-06-22T14:21:11;21.10;77.30
32506;DHT22;18955;51.224;8.482;2023-06-22T14:23:37;21.10;77.30
32506;DHT22;18955;51.224;8.482;2023-06-22T14:26:04;21.20;77.30
32506;DHT22;18955;51.224;8.482;2023-06-22T14:28:30;21.20;77.40
32506;DHT22;18955;51.224;8.482;2023-06-22T14:30:56;21.30;77.50
32506;DHT22;18955;51.224;8.482;2023-06-22T14:33:22;21.20;77.30
32506;DHT22;18955;51.224;8.482;2023-06-22T14:35:49;21.20;77.60
32506;DHT22;18955;51.224;8.482;2023-06-22T14:38:15;21.20;77.40
32506;DHT22;18955;51.224;8.482;2023-06-22T14:40:41;21.30;77.60
32506;DHT22;18955;51.224;8.482;2023-06-22T14:43:07;21.20;77.50
32506;DHT22;18955;51.224;8.482;2023-06-22T14:45:33;21.20;77.40
32506;DHT22;18955;51.224;8.482;2023-06-22T14:48:00;21.20;77.70
32506;DHT22;18955;51.224;8.482;2023-06-22T14:50:26;21.20;77.50
32506;DHT22;18955;51.224;8.482;2023-06-22T14:52:52;21.20;77.50
32506;DHT22;18955;51.224;8.482;2023-06-22T14:55:18;21.20;77.50
32506;DHT22;18955;51.224;8.482;2023-06-22T14:57:45;21.20;77.40
32506;DHT22;18955;51.224;8.482;2023-06-22T15:00:11;21.20;77.50
32506;DHT22;18955;51.224;8.482;2023-06-22T15:02:37;21.20;77.50
32506;DHT22;18955;51.224;8.482;2023-06-22T15:05:04;21.20;77.40
32506;DHT22;18955;51.224;8.482;2023-06-22T15:07:30;21.20;77.50
32506;DHT22;18955;51.224;8.482;2023-06-22T15:09:56;21.20;77.50
32506;DHT22;18955;51.224;8.482;2023-06-22T15:12:22;21.20;77.30
32506;DHT22;18955;51.224;8.482;2023-06-22T15:14:49;21.30;77.30
32506;DHT22;18955;51.224;8.482;2023-06-22T15:17:15;21.20;77.30
32506;DHT22;18955;51.224;8.482;2023-06-22T15:19:41;21.20;77.40
32506;DHT22;18955;51.224;8.482;2023-06-22T15:22:07;21.20;77.40
32506;DHT22;18955;51.224;8.482;2023-06-22T15:24:34;21.20;77.40
32506;DHT22;18955;51.224;8.482;2023-06-22T15:27:00;21.20;77.60
32506;DHT22;18955;51.224;8.482;2023-06-22T15:29:27;21.20;77.40
32506;DHT22;18955;51.224;8.482;2023-06-22T15:31:53;21.20;77.40
32506;DHT22;18955;51.224;8.482;2023-06-22T15:34:19;21.20;77.40
32506;DHT22;18955;51.224;8.482;2023-06-22T15:36:45;21.20;77.60
32506;DHT22;18955;51.224;8.482;2023-06-22T15:39:12;21.20;77.50